| Time | Avg. Air Temp | Dew Point | Avg. Rel Humidity | Avg. 2 Min Wind Speed | Max Gust Velocity | MGV Time | MGV Direction | Avg. Spot Wind Velocity |
|---|---|---|---|---|---|---|---|---|
| 2026-05-10 11:45:00 | 4° C | -1° C | 65% | 19 km/h | 25 km/h | 11:41:00 | S | 18 km/h |
| 10:45:00 | 4° C | -2° C | 63% | 18 km/h | 27 km/h | 10:41:00 | S | 20 km/h |
| 09:45:00 | 4° C | -1° C | 66% | 22 km/h | 28 km/h | 09:43:00 | S | 21 km/h |
| 08:45:00 | 3° C | -2° C | 70% | 25 km/h | 31 km/h | 08:43:00 | S | 25 km/h |
| 07:45:00 | 3° C | -1° C | 73% | 27 km/h | 31 km/h | 07:42:00 | S | 27 km/h |
| 06:45:00 | 3° C | -1° C | 71% | 27 km/h | 33 km/h | 06:41:00 | S | 28 km/h |
| 05:45:00 | 3° C | -1° C | 72% | 24 km/h | 28 km/h | 05:42:00 | S | 24 km/h |
| 04:45:00 | 3° C | -1° C | 75% | 27 km/h | 36 km/h | 04:42:00 | S | 28 km/h |
| 03:45:00 | 4° C | -1° C | 73% | 27 km/h | 35 km/h | 03:43:00 | S | 26 km/h |
| 02:45:00 | 4° C | -1° C | 71% | 30 km/h | 36 km/h | 02:44:00 | S | 30 km/h |
| 01:45:00 | 4° C | -1° C | 70% | 29 km/h | 33 km/h | 01:43:00 | S | 28 km/h |
| 00:45:00 | 5° C | -0° C | 70% | 32 km/h | 38 km/h | 00:43:00 | SE | 33 km/h |
| 23:45:00 | 5° C | -1° C | 67% | 28 km/h | 32 km/h | 23:41:00 | S | 27 km/h |
| 22:45:00 | 5° C | -1° C | 66% | 30 km/h | 33 km/h | 22:43:00 | SE | 29 km/h |
| 21:45:00 | 5° C | -2° C | 65% | 25 km/h | 30 km/h | 21:41:00 | S | 26 km/h |
| 20:45:00 | 5° C | -2° C | 61% | 18 km/h | 21 km/h | 20:44:00 | S | 16 km/h |
| 19:45:00 | 5° C | -1° C | 60% | 19 km/h | 20 km/h | 19:42:00 | S | 18 km/h |
| 18:45:00 | 6° C | -2° C | 62% | 11 km/h | 13 km/h | 18:45:00 | SW | 9 km/h |
| 17:45:00 | 6° C | -2° C | 60% | 16 km/h | 25 km/h | 17:41:00 | S | 16 km/h |
| 16:45:00 | 6° C | -2° C | 61% | 10 km/h | 23 km/h | 16:41:00 | W | 15 km/h |
| 15:45:00 | 5° C | -2° C | 63% | 15 km/h | 23 km/h | 15:43:00 | S | 14 km/h |
| 14:45:00 | 5° C | -2° C | 61% | 10 km/h | 19 km/h | 14:43:00 | S | 11 km/h |
| 13:45:00 | 4° C | -1° C | 70% | 14 km/h | 18 km/h | 13:44:00 | SW | 13 km/h |
| 12:45:00 | 4° C | 0° C | 81% | 10 km/h | 14 km/h | 12:42:00 | SW | 9 km/h |
Subpeak Weather
| Time | Avg. Air Temp | Dew Point | Avg. Rel Humidity | Avg. 2 Min Wind Speed | Max Gust Velocity | MGV Time | MGV Direction | Avg. Spot Wind Velocity |
|---|---|---|---|---|---|---|---|---|
| 2026-05-10 11:45:00 | 4° C | -1° C | 65% | 19 km/h | 25 km/h | 11:41:00 | S | 18 km/h |
| 11:40:00 | 4° C | -2° C | 67% | 22 km/h | 25 km/h | 11:40:00 | S | 23 km/h |
| 11:35:00 | 4° C | -2° C | 65% | 19 km/h | 27 km/h | 11:33:00 | S | 18 km/h |
| 11:30:00 | 4° C | -2° C | 64% | 21 km/h | 26 km/h | 11:27:00 | S | 19 km/h |
| 11:25:00 | 4° C | -2° C | 64% | 22 km/h | 27 km/h | 11:23:00 | S | 21 km/h |
| 11:20:00 | 4° C | -2° C | 64% | 19 km/h | 24 km/h | 11:20:00 | S | 20 km/h |
| 11:15:00 | 4° C | -2° C | 64% | 20 km/h | 25 km/h | 11:13:00 | S | 21 km/h |
| 11:10:00 | 4° C | -2° C | 64% | 18 km/h | 25 km/h | 11:07:00 | S | 18 km/h |
| 11:05:00 | 4° C | -2° C | 64% | 21 km/h | 24 km/h | 11:05:00 | S | 20 km/h |
| 11:00:00 | 4° C | -2° C | 64% | 21 km/h | 24 km/h | 10:59:00 | S | 19 km/h |
| 10:55:00 | 4° C | -2° C | 65% | 24 km/h | 27 km/h | 10:54:00 | SW | 22 km/h |
| 10:50:00 | 4° C | -2° C | 65% | 20 km/h | 24 km/h | 10:46:00 | S | 20 km/h |
| 10:45:00 | 4° C | -2° C | 63% | 18 km/h | 27 km/h | 10:41:00 | S | 20 km/h |




